sensor_id;sensor_type;location;lat;lon;timestamp;P1;durP1;ratioP1;P2;durP2;ratioP2
56297;SDS011;42208;6.376;-10.782;2023-04-09T00:00:35;102.50;;;28.35;;
56297;SDS011;42208;6.376;-10.782;2023-04-09T00:03:04;121.32;;;31.70;;
56297;SDS011;42208;6.376;-10.782;2023-04-09T00:05:32;112.13;;;31.60;;
56297;SDS011;42208;6.376;-10.782;2023-04-09T00:08:05;100.82;;;31.90;;
56297;SDS011;42208;6.376;-10.782;2023-04-09T00:10:33;131.68;;;37.13;;
56297;SDS011;42208;6.376;-10.782;2023-04-09T00:13:01;138.27;;;39.72;;
56297;SDS011;42208;6.376;-10.782;2023-04-09T00:15:30;139.27;;;42.28;;
56297;SDS011;42208;6.376;-10.782;2023-04-09T00:17:58;133.02;;;37.60;;
56297;SDS011;42208;6.376;-10.782;2023-04-09T00:20:26;135.35;;;39.03;;
56297;SDS011;42208;6.376;-10.782;2023-04-09T00:22:55;107.80;;;34.88;;
56297;SDS011;42208;6.376;-10.782;2023-04-09T00:25:23;129.82;;;35.90;;
56297;SDS011;42208;6.376;-10.782;2023-04-09T00:27:51;114.45;;;36.60;;
56297;SDS011;42208;6.376;-10.782;2023-04-09T00:30:20;120.40;;;35.22;;
56297;SDS011;42208;6.376;-10.782;2023-04-09T00:32:49;116.28;;;33.42;;
56297;SDS011;42208;6.376;-10.782;2023-04-09T00:35:17;133.80;;;37.75;;
56297;SDS011;42208;6.376;-10.782;2023-04-09T00:37:46;149.40;;;43.08;;
56297;SDS011;42208;6.376;-10.782;2023-04-09T00:40:15;119.35;;;38.40;;
56297;SDS011;42208;6.376;-10.782;2023-04-09T00:42:43;109.75;;;35.33;;
56297;SDS011;42208;6.376;-10.782;2023-04-09T00:45:12;122.32;;;34.88;;
56297;SDS011;42208;6.376;-10.782;2023-04-09T00:47:40;117.55;;;28.25;;
56297;SDS011;42208;6.376;-10.782;2023-04-09T00:50:08;103.63;;;29.80;;
56297;SDS011;42208;6.376;-10.782;2023-04-09T00:52:37;113.45;;;29.92;;
56297;SDS011;42208;6.376;-10.782;2023-04-09T00:55:05;104.00;;;29.33;;
56297;SDS011;42208;6.376;-10.782;2023-04-09T00:57:34;112.28;;;25.17;;
56297;SDS011;42208;6.376;-10.782;2023-04-09T01:00:03;118.22;;;30.67;;
56297;SDS011;42208;6.376;-10.782;2023-04-09T01:02:31;95.70;;;28.55;;
56297;SDS011;42208;6.376;-10.782;2023-04-09T01:05:00;142.90;;;30.27;;
56297;SDS011;42208;6.376;-10.782;2023-04-09T01:12:57;119.25;;;29.05;;
56297;SDS011;42208;6.376;-10.782;2023-04-09T01:15:36;80.88;;;25.60;;
56297;SDS011;42208;6.376;-10.782;2023-04-09T01:18:11;93.22;;;26.17;;
56297;SDS011;42208;6.376;-10.782;2023-04-09T01:20:47;97.15;;;26.73;;
56297;SDS011;42208;6.376;-10.782;2023-04-09T01:30:02;112.03;;;31.42;;
56297;SDS011;42208;6.376;-10.782;2023-04-09T01:32:31;132.15;;;36.53;;
56297;SDS011;42208;6.376;-10.782;2023-04-09T01:35:03;121.25;;;37.38;;
56297;SDS011;42208;6.376;-10.782;2023-04-09T01:37:33;87.03;;;27.92;;
56297;SDS011;42208;6.376;-10.782;2023-04-09T01:40:02;74.72;;;27.67;;
56297;SDS011;42208;6.376;-10.782;2023-04-09T01:42:31;105.57;;;30.42;;
56297;SDS011;42208;6.376;-10.782;2023-04-09T01:44:59;80.32;;;26.65;;
56297;SDS011;42208;6.376;-10.782;2023-04-09T01:47:29;80.63;;;24.63;;
56297;SDS011;42208;6.376;-10.782;2023-04-09T01:49:58;71.85;;;22.27;;
56297;SDS011;42208;6.376;-10.782;2023-04-09T01:52:27;69.13;;;22.13;;
56297;SDS011;42208;6.376;-10.782;2023-04-09T01:54:55;67.38;;;23.40;;
56297;SDS011;42208;6.376;-10.782;2023-04-09T01:57:24;107.00;;;31.67;;
56297;SDS011;42208;6.376;-10.782;2023-04-09T01:59:53;95.53;;;33.22;;
56297;SDS011;42208;6.376;-10.782;2023-04-09T02:02:24;73.60;;;29.38;;
56297;SDS011;42208;6.376;-10.782;2023-04-09T02:05:03;84.72;;;28.70;;
56297;SDS011;42208;6.376;-10.782;2023-04-09T02:10:05;63.42;;;22.40;;
56297;SDS011;42208;6.376;-10.782;2023-04-09T02:12:38;74.67;;;24.80;;
56297;SDS011;42208;6.376;-10.782;2023-04-09T02:15:11;80.55;;;24.40;;
56297;SDS011;42208;6.376;-10.782;2023-04-09T02:17:40;72.85;;;23.42;;
56297;SDS011;42208;6.376;-10.782;2023-04-09T02:20:08;79.93;;;24.85;;
56297;SDS011;42208;6.376;-10.782;2023-04-09T02:22:38;69.68;;;24.88;;
56297;SDS011;42208;6.376;-10.782;2023-04-09T02:25:06;73.45;;;25.38;;
56297;SDS011;42208;6.376;-10.782;2023-04-09T02:27:34;81.72;;;28.30;;
56297;SDS011;42208;6.376;-10.782;2023-04-09T02:30:03;79.70;;;29.80;;
56297;SDS011;42208;6.376;-10.782;2023-04-09T02:32:32;83.03;;;29.02;;
56297;SDS011;42208;6.376;-10.782;2023-04-09T02:35:00;76.80;;;27.73;;
56297;SDS011;42208;6.376;-10.782;2023-04-09T02:37:28;78.25;;;27.42;;
56297;SDS011;42208;6.376;-10.782;2023-04-09T02:39:57;80.18;;;28.17;;
56297;SDS011;42208;6.376;-10.782;2023-04-09T02:42:25;76.85;;;27.42;;
56297;SDS011;42208;6.376;-10.782;2023-04-09T02:44:53;70.25;;;26.63;;
56297;SDS011;42208;6.376;-10.782;2023-04-09T02:47:23;71.70;;;23.75;;
56297;SDS011;42208;6.376;-10.782;2023-04-09T02:49:52;71.05;;;25.90;;
56297;SDS011;42208;6.376;-10.782;2023-04-09T02:52:20;69.40;;;25.45;;
56297;SDS011;42208;6.376;-10.782;2023-04-09T02:54:49;78.13;;;26.77;;
56297;SDS011;42208;6.376;-10.782;2023-04-09T02:57:17;90.03;;;28.15;;
56297;SDS011;42208;6.376;-10.782;2023-04-09T02:59:46;88.47;;;29.05;;
56297;SDS011;42208;6.376;-10.782;2023-04-09T03:02:14;90.10;;;32.08;;
56297;SDS011;42208;6.376;-10.782;2023-04-09T03:04:42;85.70;;;27.30;;
56297;SDS011;42208;6.376;-10.782;2023-04-09T03:07:10;89.93;;;30.85;;
56297;SDS011;42208;6.376;-10.782;2023-04-09T03:09:39;98.63;;;27.40;;
56297;SDS011;42208;6.376;-10.782;2023-04-09T03:12:07;92.50;;;27.95;;
56297;SDS011;42208;6.376;-10.782;2023-04-09T03:14:35;80.80;;;25.63;;
56297;SDS011;42208;6.376;-10.782;2023-04-09T03:17:03;81.07;;;25.75;;
56297;SDS011;42208;6.376;-10.782;2023-04-09T03:19:32;86.85;;;26.00;;
56297;SDS011;42208;6.376;-10.782;2023-04-09T03:22:00;87.78;;;29.23;;
56297;SDS011;42208;6.376;-10.782;2023-04-09T03:24:32;94.05;;;32.85;;
56297;SDS011;42208;6.376;-10.782;2023-04-09T03:27:04;101.65;;;34.45;;
56297;SDS011;42208;6.376;-10.782;2023-04-09T03:29:32;88.03;;;32.58;;
56297;SDS011;42208;6.376;-10.782;2023-04-09T03:32:01;105.40;;;31.23;;
56297;SDS011;42208;6.376;-10.782;2023-04-09T03:34:29;86.47;;;30.90;;
56297;SDS011;42208;6.376;-10.782;2023-04-09T03:36:58;92.90;;;31.95;;
56297;SDS011;42208;6.376;-10.782;2023-04-09T03:39:29;89.18;;;30.75;;
56297;SDS011;42208;6.376;-10.782;2023-04-09T03:41:57;74.90;;;27.73;;
56297;SDS011;42208;6.376;-10.782;2023-04-09T03:44:30;74.30;;;26.10;;
56297;SDS011;42208;6.376;-10.782;2023-04-09T03:47:08;65.18;;;24.90;;
56297;SDS011;42208;6.376;-10.782;2023-04-09T03:49:37;87.95;;;27.00;;
56297;SDS011;42208;6.376;-10.782;2023-04-09T03:52:14;96.55;;;26.15;;
56297;SDS011;42208;6.376;-10.782;2023-04-09T03:54:46;79.85;;;26.48;;
56297;SDS011;42208;6.376;-10.782;2023-04-09T03:57:20;79.97;;;26.20;;
56297;SDS011;42208;6.376;-10.782;2023-04-09T03:59:51;84.70;;;28.08;;
56297;SDS011;42208;6.376;-10.782;2023-04-09T04:02:21;81.25;;;26.52;;
56297;SDS011;42208;6.376;-10.782;2023-04-09T04:04:58;76.05;;;24.08;;
56297;SDS011;42208;6.376;-10.782;2023-04-09T04:07:31;75.47;;;24.58;;
56297;SDS011;42208;6.376;-10.782;2023-04-09T04:10:05;74.70;;;22.75;;
56297;SDS011;42208;6.376;-10.782;2023-04-09T04:12:35;78.45;;;23.25;;
56297;SDS011;42208;6.376;-10.782;2023-04-09T04:15:07;79.30;;;24.35;;
56297;SDS011;42208;6.376;-10.782;2023-04-09T04:17:42;80.05;;;24.98;;
56297;SDS011;42208;6.376;-10.782;2023-04-09T04:20:31;80.63;;;24.95;;
56297;SDS011;42208;6.376;-10.782;2023-04-09T04:23:05;81.70;;;24.73;;
56297;SDS011;42208;6.376;-10.782;2023-04-09T04:25:42;73.60;;;23.60;;
56297;SDS011;42208;6.376;-10.782;2023-04-09T04:28:15;92.63;;;25.88;;
56297;SDS011;42208;6.376;-10.782;2023-04-09T04:30:43;72.80;;;26.08;;
56297;SDS011;42208;6.376;-10.782;2023-04-09T04:33:12;75.97;;;27.42;;
56297;SDS011;42208;6.376;-10.782;2023-04-09T04:35:46;73.28;;;28.80;;
56297;SDS011;42208;6.376;-10.782;2023-04-09T04:38:30;63.83;;;25.02;;
56297;SDS011;42208;6.376;-10.782;2023-04-09T04:41:02;72.43;;;25.73;;
56297;SDS011;42208;6.376;-10.782;2023-04-09T04:43:34;65.85;;;25.83;;
56297;SDS011;42208;6.376;-10.782;2023-04-09T04:46:02;71.43;;;26.63;;
56297;SDS011;42208;6.376;-10.782;2023-04-09T04:48:31;73.28;;;23.52;;
56297;SDS011;42208;6.376;-10.782;2023-04-09T04:51:00;65.47;;;23.85;;
56297;SDS011;42208;6.376;-10.782;2023-04-09T04:53:37;59.80;;;21.85;;
56297;SDS011;42208;6.376;-10.782;2023-04-09T04:56:13;59.85;;;22.05;;
56297;SDS011;42208;6.376;-10.782;2023-04-09T04:58:55;62.95;;;22.33;;
56297;SDS011;42208;6.376;-10.782;2023-04-09T05:01:23;43.20;;;21.60;;
56297;SDS011;42208;6.376;-10.782;2023-04-09T05:03:52;57.50;;;22.27;;
56297;SDS011;42208;6.376;-10.782;2023-04-09T05:06:29;55.17;;;21.58;;
56297;SDS011;42208;6.376;-10.782;2023-04-09T05:08:59;46.97;;;21.65;;
56297;SDS011;42208;6.376;-10.782;2023-04-09T05:11:36;54.47;;;21.08;;
56297;SDS011;42208;6.376;-10.782;2023-04-09T05:14:10;56.00;;;21.65;;
56297;SDS011;42208;6.376;-10.782;2023-04-09T05:16:39;48.67;;;19.05;;
56297;SDS011;42208;6.376;-10.782;2023-04-09T05:19:07;55.67;;;20.55;;
56297;SDS011;42208;6.376;-10.782;2023-04-09T05:21:36;47.65;;;19.95;;
56297;SDS011;42208;6.376;-10.782;2023-04-09T05:24:05;58.58;;;19.95;;
56297;SDS011;42208;6.376;-10.782;2023-04-09T05:26:33;48.28;;;19.35;;
56297;SDS011;42208;6.376;-10.782;2023-04-09T05:29:01;43.90;;;18.05;;
56297;SDS011;42208;6.376;-10.782;2023-04-09T05:31:31;42.60;;;18.30;;
56297;SDS011;42208;6.376;-10.782;2023-04-09T05:34:04;45.42;;;16.75;;
56297;SDS011;42208;6.376;-10.782;2023-04-09T05:36:37;43.72;;;17.25;;
56297;SDS011;42208;6.376;-10.782;2023-04-09T05:39:05;35.97;;;16.77;;
56297;SDS011;42208;6.376;-10.782;2023-04-09T05:41:34;38.47;;;16.58;;
56297;SDS011;42208;6.376;-10.782;2023-04-09T05:44:17;44.03;;;16.58;;
56297;SDS011;42208;6.376;-10.782;2023-04-09T05:46:46;33.47;;;15.63;;
56297;SDS011;42208;6.376;-10.782;2023-04-09T05:49:19;36.83;;;16.50;;
56297;SDS011;42208;6.376;-10.782;2023-04-09T05:51:51;37.65;;;15.55;;
56297;SDS011;42208;6.376;-10.782;2023-04-09T05:54:24;36.85;;;15.73;;
56297;SDS011;42208;6.376;-10.782;2023-04-09T05:56:53;31.05;;;15.05;;
56297;SDS011;42208;6.376;-10.782;2023-04-09T05:59:22;54.13;;;16.13;;
56297;SDS011;42208;6.376;-10.782;2023-04-09T06:01:50;40.97;;;15.77;;
56297;SDS011;42208;6.376;-10.782;2023-04-09T06:04:18;35.50;;;15.68;;
56297;SDS011;42208;6.376;-10.782;2023-04-09T06:06:47;39.92;;;15.40;;
56297;SDS011;42208;6.376;-10.782;2023-04-09T06:09:15;33.40;;;16.17;;
56297;SDS011;42208;6.376;-10.782;2023-04-09T06:11:43;42.22;;;16.40;;
56297;SDS011;42208;6.376;-10.782;2023-04-09T06:14:11;33.95;;;15.48;;
56297;SDS011;42208;6.376;-10.782;2023-04-09T06:16:39;32.42;;;15.82;;
56297;SDS011;42208;6.376;-10.782;2023-04-09T06:19:08;46.72;;;16.25;;
56297;SDS011;42208;6.376;-10.782;2023-04-09T06:21:36;38.80;;;16.58;;
56297;SDS011;42208;6.376;-10.782;2023-04-09T06:24:04;36.92;;;15.85;;
56297;SDS011;42208;6.376;-10.782;2023-04-09T06:26:33;35.50;;;15.65;;
56297;SDS011;42208;6.376;-10.782;2023-04-09T06:29:01;33.65;;;15.88;;
56297;SDS011;42208;6.376;-10.782;2023-04-09T06:31:29;34.72;;;15.75;;
56297;SDS011;42208;6.376;-10.782;2023-04-09T06:34:00;38.88;;;15.18;;
56297;SDS011;42208;6.376;-10.782;2023-04-09T06:36:28;30.65;;;16.02;;
56297;SDS011;42208;6.376;-10.782;2023-04-09T06:38:56;36.10;;;15.88;;
56297;SDS011;42208;6.376;-10.782;2023-04-09T06:41:25;33.60;;;16.77;;
56297;SDS011;42208;6.376;-10.782;2023-04-09T06:43:53;40.03;;;16.25;;
56297;SDS011;42208;6.376;-10.782;2023-04-09T06:46:21;34.33;;;16.90;;
56297;SDS011;42208;6.376;-10.782;2023-04-09T06:48:50;35.13;;;17.45;;
56297;SDS011;42208;6.376;-10.782;2023-04-09T06:51:18;40.78;;;18.10;;
56297;SDS011;42208;6.376;-10.782;2023-04-09T06:53:46;45.08;;;17.15;;
56297;SDS011;42208;6.376;-10.782;2023-04-09T06:56:14;34.90;;;16.75;;
56297;SDS011;42208;6.376;-10.782;2023-04-09T06:58:43;38.78;;;15.63;;
56297;SDS011;42208;6.376;-10.782;2023-04-09T07:01:11;37.00;;;16.15;;
56297;SDS011;42208;6.376;-10.782;2023-04-09T07:03:39;46.42;;;18.13;;
56297;SDS011;42208;6.376;-10.782;2023-04-09T07:06:08;41.13;;;17.58;;
56297;SDS011;42208;6.376;-10.782;2023-04-09T07:08:36;34.58;;;16.55;;
56297;SDS011;42208;6.376;-10.782;2023-04-09T07:11:04;46.85;;;17.58;;
56297;SDS011;42208;6.376;-10.782;2023-04-09T07:13:33;47.67;;;17.88;;
56297;SDS011;42208;6.376;-10.782;2023-04-09T07:16:01;44.22;;;18.23;;
56297;SDS011;42208;6.376;-10.782;2023-04-09T07:18:29;44.70;;;18.65;;
56297;SDS011;42208;6.376;-10.782;2023-04-09T07:20:58;42.60;;;18.23;;
56297;SDS011;42208;6.376;-10.782;2023-04-09T07:23:26;44.80;;;18.20;;
56297;SDS011;42208;6.376;-10.782;2023-04-09T07:25:54;43.95;;;18.08;;
56297;SDS011;42208;6.376;-10.782;2023-04-09T07:28:22;50.85;;;20.90;;
56297;SDS011;42208;6.376;-10.782;2023-04-09T07:30:51;46.95;;;19.90;;
56297;SDS011;42208;6.376;-10.782;2023-04-09T07:33:19;45.00;;;19.17;;
56297;SDS011;42208;6.376;-10.782;2023-04-09T07:35:47;54.95;;;20.65;;
56297;SDS011;42208;6.376;-10.782;2023-04-09T07:38:16;42.63;;;18.80;;
56297;SDS011;42208;6.376;-10.782;2023-04-09T07:40:44;50.42;;;20.30;;
56297;SDS011;42208;6.376;-10.782;2023-04-09T07:43:12;42.65;;;16.80;;
56297;SDS011;42208;6.376;-10.782;2023-04-09T07:45:40;46.25;;;21.25;;
56297;SDS011;42208;6.376;-10.782;2023-04-09T07:48:08;44.67;;;17.90;;
56297;SDS011;42208;6.376;-10.782;2023-04-09T07:50:37;39.10;;;18.35;;
56297;SDS011;42208;6.376;-10.782;2023-04-09T07:53:05;50.47;;;18.40;;
56297;SDS011;42208;6.376;-10.782;2023-04-09T07:55:33;53.47;;;20.45;;
56297;SDS011;42208;6.376;-10.782;2023-04-09T07:58:01;46.38;;;19.73;;
56297;SDS011;42208;6.376;-10.782;2023-04-09T08:00:30;41.50;;;19.30;;
56297;SDS011;42208;6.376;-10.782;2023-04-09T08:02:58;45.33;;;19.83;;
56297;SDS011;42208;6.376;-10.782;2023-04-09T08:05:26;47.60;;;19.25;;
56297;SDS011;42208;6.376;-10.782;2023-04-09T08:07:55;43.33;;;18.48;;
56297;SDS011;42208;6.376;-10.782;2023-04-09T08:10:23;40.67;;;18.42;;
56297;SDS011;42208;6.376;-10.782;2023-04-09T08:12:51;47.00;;;19.75;;
56297;SDS011;42208;6.376;-10.782;2023-04-09T08:15:19;52.95;;;19.95;;
56297;SDS011;42208;6.376;-10.782;2023-04-09T08:17:47;57.05;;;20.63;;
56297;SDS011;42208;6.376;-10.782;2023-04-09T08:20:16;48.53;;;18.67;;
56297;SDS011;42208;6.376;-10.782;2023-04-09T08:22:44;50.47;;;20.05;;
56297;SDS011;42208;6.376;-10.782;2023-04-09T08:25:12;52.67;;;20.92;;
56297;SDS011;42208;6.376;-10.782;2023-04-09T08:27:41;41.05;;;20.33;;
56297;SDS011;42208;6.376;-10.782;2023-04-09T08:30:09;52.10;;;21.08;;
56297;SDS011;42208;6.376;-10.782;2023-04-09T08:32:38;56.65;;;20.77;;
56297;SDS011;42208;6.376;-10.782;2023-04-09T08:35:06;48.47;;;19.45;;
56297;SDS011;42208;6.376;-10.782;2023-04-09T08:37:35;49.75;;;19.85;;
56297;SDS011;42208;6.376;-10.782;2023-04-09T08:40:03;47.60;;;18.35;;
56297;SDS011;42208;6.376;-10.782;2023-04-09T08:42:32;51.00;;;20.85;;
56297;SDS011;42208;6.376;-10.782;2023-04-09T08:45:03;60.53;;;23.02;;
56297;SDS011;42208;6.376;-10.782;2023-04-09T08:47:31;52.60;;;22.60;;
56297;SDS011;42208;6.376;-10.782;2023-04-09T08:50:03;47.17;;;20.42;;
56297;SDS011;42208;6.376;-10.782;2023-04-09T08:52:32;67.20;;;21.23;;
56297;SDS011;42208;6.376;-10.782;2023-04-09T08:55:01;55.25;;;19.92;;
56297;SDS011;42208;6.376;-10.782;2023-04-09T08:57:29;54.22;;;20.42;;
56297;SDS011;42208;6.376;-10.782;2023-04-09T09:00:06;60.53;;;22.70;;
56297;SDS011;42208;6.376;-10.782;2023-04-09T09:02:35;50.08;;;19.95;;
56297;SDS011;42208;6.376;-10.782;2023-04-09T09:05:03;48.33;;;19.90;;
56297;SDS011;42208;6.376;-10.782;2023-04-09T09:07:32;69.38;;;20.73;;
56297;SDS011;42208;6.376;-10.782;2023-04-09T09:10:01;53.60;;;18.80;;
56297;SDS011;42208;6.376;-10.782;2023-04-09T09:12:33;55.50;;;20.63;;
56297;SDS011;42208;6.376;-10.782;2023-04-09T09:15:24;59.95;;;22.27;;
56297;SDS011;42208;6.376;-10.782;2023-04-09T09:17:55;49.40;;;21.20;;
56297;SDS011;42208;6.376;-10.782;2023-04-09T09:20:25;50.03;;;19.50;;
56297;SDS011;42208;6.376;-10.782;2023-04-09T09:22:54;51.95;;;17.83;;
56297;SDS011;42208;6.376;-10.782;2023-04-09T09:25:23;44.38;;;16.67;;
56297;SDS011;42208;6.376;-10.782;2023-04-09T09:27:52;45.40;;;17.95;;
56297;SDS011;42208;6.376;-10.782;2023-04-09T09:33:03;65.70;;;20.35;;
56297;SDS011;42208;6.376;-10.782;2023-04-09T09:35:53;71.13;;;20.20;;
56297;SDS011;42208;6.376;-10.782;2023-04-09T09:38:21;67.97;;;20.30;;
56297;SDS011;42208;6.376;-10.782;2023-04-09T09:40:50;62.70;;;19.63;;
56297;SDS011;42208;6.376;-10.782;2023-04-09T09:43:18;66.10;;;20.25;;
56297;SDS011;42208;6.376;-10.782;2023-04-09T09:45:47;62.05;;;18.85;;
56297;SDS011;42208;6.376;-10.782;2023-04-09T09:48:15;58.20;;;18.52;;
56297;SDS011;42208;6.376;-10.782;2023-04-09T09:50:44;68.97;;;20.33;;
56297;SDS011;42208;6.376;-10.782;2023-04-09T09:53:15;52.75;;;17.65;;
56297;SDS011;42208;6.376;-10.782;2023-04-09T09:55:48;59.58;;;19.40;;
56297;SDS011;42208;6.376;-10.782;2023-04-09T09:58:39;52.55;;;17.75;;
56297;SDS011;42208;6.376;-10.782;2023-04-09T10:01:16;56.42;;;18.30;;
56297;SDS011;42208;6.376;-10.782;2023-04-09T10:03:48;49.45;;;17.98;;
56297;SDS011;42208;6.376;-10.782;2023-04-09T10:06:19;56.45;;;18.30;;
56297;SDS011;42208;6.376;-10.782;2023-04-09T10:08:47;63.47;;;18.77;;
56297;SDS011;42208;6.376;-10.782;2023-04-09T10:11:17;64.85;;;20.38;;
56297;SDS011;42208;6.376;-10.782;2023-04-09T10:13:48;51.05;;;18.60;;
56297;SDS011;42208;6.376;-10.782;2023-04-09T10:16:20;69.28;;;19.27;;
56297;SDS011;42208;6.376;-10.782;2023-04-09T10:18:49;55.20;;;20.15;;
56297;SDS011;42208;6.376;-10.782;2023-04-09T10:23:58;79.68;;;21.20;;
56297;SDS011;42208;6.376;-10.782;2023-04-09T10:26:27;70.80;;;21.83;;
56297;SDS011;42208;6.376;-10.782;2023-04-09T10:29:09;69.15;;;19.73;;
56297;SDS011;42208;6.376;-10.782;2023-04-09T10:34:48;70.40;;;21.30;;
56297;SDS011;42208;6.376;-10.782;2023-04-09T10:37:21;78.45;;;21.92;;
56297;SDS011;42208;6.376;-10.782;2023-04-09T10:39:51;78.68;;;23.45;;
56297;SDS011;42208;6.376;-10.782;2023-04-09T10:42:28;97.75;;;25.63;;
56297;SDS011;42208;6.376;-10.782;2023-04-09T10:47:39;82.22;;;23.23;;
56297;SDS011;42208;6.376;-10.782;2023-04-09T10:50:16;89.97;;;26.27;;
56297;SDS011;42208;6.376;-10.782;2023-04-09T10:52:52;101.32;;;23.58;;
56297;SDS011;42208;6.376;-10.782;2023-04-09T10:58:09;89.15;;;20.92;;
56297;SDS011;42208;6.376;-10.782;2023-04-09T11:00:40;94.72;;;19.42;;
56297;SDS011;42208;6.376;-10.782;2023-04-09T11:03:19;69.28;;;17.83;;
56297;SDS011;42208;6.376;-10.782;2023-04-09T11:05:50;81.15;;;20.50;;
56297;SDS011;42208;6.376;-10.782;2023-04-09T11:08:19;91.38;;;21.25;;
56297;SDS011;42208;6.376;-10.782;2023-04-09T11:10:47;84.47;;;21.10;;
56297;SDS011;42208;6.376;-10.782;2023-04-09T11:13:18;91.47;;;22.30;;
56297;SDS011;42208;6.376;-10.782;2023-04-09T11:15:46;83.45;;;17.92;;
56297;SDS011;42208;6.376;-10.782;2023-04-09T11:18:24;100.65;;;21.20;;
56297;SDS011;42208;6.376;-10.782;2023-04-09T11:20:57;107.57;;;24.60;;
56297;SDS011;42208;6.376;-10.782;2023-04-09T11:23:27;129.32;;;33.53;;
56297;SDS011;42208;6.376;-10.782;2023-04-09T11:25:55;84.22;;;19.58;;
56297;SDS011;42208;6.376;-10.782;2023-04-09T11:28:24;97.85;;;22.75;;
56297;SDS011;42208;6.376;-10.782;2023-04-09T11:30:53;80.72;;;21.08;;
56297;SDS011;42208;6.376;-10.782;2023-04-09T11:33:21;87.97;;;21.02;;
56297;SDS011;42208;6.376;-10.782;2023-04-09T11:35:49;82.45;;;18.92;;
56297;SDS011;42208;6.376;-10.782;2023-04-09T11:38:18;84.68;;;17.77;;
56297;SDS011;42208;6.376;-10.782;2023-04-09T11:40:47;78.78;;;17.38;;
56297;SDS011;42208;6.376;-10.782;2023-04-09T11:45:46;85.18;;;18.13;;
56297;SDS011;42208;6.376;-10.782;2023-04-09T11:48:15;85.45;;;18.50;;
56297;SDS011;42208;6.376;-10.782;2023-04-09T11:50:45;83.28;;;18.85;;
56297;SDS011;42208;6.376;-10.782;2023-04-09T11:53:16;76.78;;;17.33;;
56297;SDS011;42208;6.376;-10.782;2023-04-09T11:55:50;76.82;;;16.15;;
56297;SDS011;42208;6.376;-10.782;2023-04-09T11:58:23;64.63;;;15.50;;
56297;SDS011;42208;6.376;-10.782;2023-04-09T12:00:53;79.70;;;17.90;;
56297;SDS011;42208;6.376;-10.782;2023-04-09T12:03:28;86.55;;;17.73;;
56297;SDS011;42208;6.376;-10.782;2023-04-09T12:06:01;85.78;;;19.02;;
56297;SDS011;42208;6.376;-10.782;2023-04-09T12:08:35;70.20;;;16.23;;
56297;SDS011;42208;6.376;-10.782;2023-04-09T12:13:35;82.37;;;16.47;;
56297;SDS011;42208;6.376;-10.782;2023-04-09T12:16:03;81.63;;;17.67;;
56297;SDS011;42208;6.376;-10.782;2023-04-09T12:18:34;89.95;;;16.50;;
56297;SDS011;42208;6.376;-10.782;2023-04-09T12:21:03;79.20;;;18.50;;
56297;SDS011;42208;6.376;-10.782;2023-04-09T12:23:31;70.63;;;16.55;;
56297;SDS011;42208;6.376;-10.782;2023-04-09T12:25:59;76.70;;;17.45;;
56297;SDS011;42208;6.376;-10.782;2023-04-09T12:28:28;70.22;;;16.45;;
56297;SDS011;42208;6.376;-10.782;2023-04-09T12:30:57;72.88;;;17.02;;
56297;SDS011;42208;6.376;-10.782;2023-04-09T12:33:25;75.05;;;15.77;;
56297;SDS011;42208;6.376;-10.782;2023-04-09T12:35:53;76.90;;;16.67;;
56297;SDS011;42208;6.376;-10.782;2023-04-09T12:38:22;59.90;;;14.88;;
56297;SDS011;42208;6.376;-10.782;2023-04-09T12:40:50;71.07;;;17.60;;
56297;SDS011;42208;6.376;-10.782;2023-04-09T12:43:18;69.63;;;15.38;;
56297;SDS011;42208;6.376;-10.782;2023-04-09T12:45:46;86.53;;;18.67;;
56297;SDS011;42208;6.376;-10.782;2023-04-09T12:48:15;80.28;;;17.08;;
56297;SDS011;42208;6.376;-10.782;2023-04-09T12:50:43;74.22;;;16.13;;
56297;SDS011;42208;6.376;-10.782;2023-04-09T12:53:11;79.60;;;15.95;;
56297;SDS011;42208;6.376;-10.782;2023-04-09T12:55:39;90.15;;;17.50;;
56297;SDS011;42208;6.376;-10.782;2023-04-09T12:58:08;73.47;;;16.05;;
56297;SDS011;42208;6.376;-10.782;2023-04-09T13:00:37;89.15;;;18.85;;
56297;SDS011;42208;6.376;-10.782;2023-04-09T13:03:05;81.75;;;15.68;;
56297;SDS011;42208;6.376;-10.782;2023-04-09T13:05:33;79.88;;;15.73;;
56297;SDS011;42208;6.376;-10.782;2023-04-09T13:08:01;97.15;;;22.30;;
56297;SDS011;42208;6.376;-10.782;2023-04-09T13:10:30;69.93;;;16.45;;
56297;SDS011;42208;6.376;-10.782;2023-04-09T13:12:58;89.07;;;22.48;;
56297;SDS011;42208;6.376;-10.782;2023-04-09T13:15:27;91.80;;;24.38;;
56297;SDS011;42208;6.376;-10.782;2023-04-09T13:17:55;72.40;;;15.82;;
56297;SDS011;42208;6.376;-10.782;2023-04-09T13:20:23;87.80;;;15.88;;
56297;SDS011;42208;6.376;-10.782;2023-04-09T13:22:52;67.75;;;15.18;;
56297;SDS011;42208;6.376;-10.782;2023-04-09T13:25:20;76.18;;;15.98;;
56297;SDS011;42208;6.376;-10.782;2023-04-09T13:27:48;82.78;;;16.48;;
56297;SDS011;42208;6.376;-10.782;2023-04-09T13:30:16;72.47;;;15.13;;
56297;SDS011;42208;6.376;-10.782;2023-04-09T13:32:44;86.07;;;17.42;;
56297;SDS011;42208;6.376;-10.782;2023-04-09T13:35:13;69.25;;;15.30;;
56297;SDS011;42208;6.376;-10.782;2023-04-09T13:37:41;74.53;;;15.20;;
56297;SDS011;42208;6.376;-10.782;2023-04-09T13:40:10;94.60;;;16.42;;
56297;SDS011;42208;6.376;-10.782;2023-04-09T13:42:38;72.90;;;15.10;;
56297;SDS011;42208;6.376;-10.782;2023-04-09T13:45:07;79.50;;;16.02;;
56297;SDS011;42208;6.376;-10.782;2023-04-09T13:47:35;71.97;;;15.68;;
56297;SDS011;42208;6.376;-10.782;2023-04-09T13:50:03;78.25;;;15.82;;
56297;SDS011;42208;6.376;-10.782;2023-04-09T13:52:32;92.35;;;16.52;;
56297;SDS011;42208;6.376;-10.782;2023-04-09T13:55:01;78.03;;;16.05;;
56297;SDS011;42208;6.376;-10.782;2023-04-09T13:57:29;89.60;;;16.38;;
56297;SDS011;42208;6.376;-10.782;2023-04-09T13:59:57;67.75;;;13.35;;
56297;SDS011;42208;6.376;-10.782;2023-04-09T14:02:25;76.32;;;13.63;;
56297;SDS011;42208;6.376;-10.782;2023-04-09T14:04:54;76.25;;;14.15;;
56297;SDS011;42208;6.376;-10.782;2023-04-09T14:07:23;77.78;;;15.98;;
56297;SDS011;42208;6.376;-10.782;2023-04-09T14:09:51;78.75;;;14.07;;
56297;SDS011;42208;6.376;-10.782;2023-04-09T14:12:19;77.32;;;15.95;;
56297;SDS011;42208;6.376;-10.782;2023-04-09T14:14:48;66.70;;;14.52;;
56297;SDS011;42208;6.376;-10.782;2023-04-09T14:17:16;82.53;;;17.10;;
56297;SDS011;42208;6.376;-10.782;2023-04-09T14:19:44;63.03;;;15.15;;
56297;SDS011;42208;6.376;-10.782;2023-04-09T14:22:12;86.05;;;16.30;;
56297;SDS011;42208;6.376;-10.782;2023-04-09T14:24:41;90.93;;;25.98;;
56297;SDS011;42208;6.376;-10.782;2023-04-09T14:27:09;57.05;;;14.82;;
56297;SDS011;42208;6.376;-10.782;2023-04-09T14:29:37;74.40;;;18.55;;
56297;SDS011;42208;6.376;-10.782;2023-04-09T14:32:05;62.72;;;15.07;;
56297;SDS011;42208;6.376;-10.782;2023-04-09T14:34:34;85.85;;;16.52;;
56297;SDS011;42208;6.376;-10.782;2023-04-09T14:37:02;82.13;;;19.42;;
56297;SDS011;42208;6.376;-10.782;2023-04-09T14:39:30;82.43;;;17.75;;
56297;SDS011;42208;6.376;-10.782;2023-04-09T14:41:58;85.55;;;16.35;;
56297;SDS011;42208;6.376;-10.782;2023-04-09T14:44:26;87.10;;;15.70;;
56297;SDS011;42208;6.376;-10.782;2023-04-09T14:46:55;97.13;;;17.38;;
56297;SDS011;42208;6.376;-10.782;2023-04-09T14:49:23;91.78;;;15.85;;
56297;SDS011;42208;6.376;-10.782;2023-04-09T14:51:51;86.18;;;17.27;;
56297;SDS011;42208;6.376;-10.782;2023-04-09T14:54:20;88.13;;;15.88;;
56297;SDS011;42208;6.376;-10.782;2023-04-09T14:56:48;69.15;;;16.10;;